createdAt,value
2023-02-22T00:00:46.520Z,100184.73
2023-02-22T00:03:55.681Z,100186.92
2023-02-22T00:06:28.359Z,100191.06
2023-02-22T00:08:58.185Z,100188.06
2023-02-22T00:11:27.835Z,100190.25
2023-02-22T00:13:59.780Z,100191.17
2023-02-22T00:16:32.859Z,100190.99
2023-02-22T00:19:02.737Z,100187.97
2023-02-22T00:21:30.885Z,100190.25
2023-02-22T00:24:24.388Z,100194.29
2023-02-22T00:26:57.944Z,100192.85
2023-02-22T00:29:56.581Z,100192.70
2023-02-22T00:33:05.966Z,100194.45
2023-02-22T00:35:35.125Z,100201.26
2023-02-22T00:38:03.906Z,100203.12
2023-02-22T00:40:35.209Z,100208.48
2023-02-22T00:43:11.509Z,100208.05
2023-02-22T00:46:23.221Z,100210.64
2023-02-22T00:52:25.228Z,100219.98
2023-02-22T00:54:58.003Z,100223.95
2023-02-22T00:57:34.901Z,100226.23
2023-02-22T01:06:47.128Z,100240.80
2023-02-22T01:16:14.148Z,100244.52
2023-02-22T01:19:33.662Z,100251.23
2023-02-22T01:22:01.890Z,100260.48
2023-02-22T01:24:33.095Z,100265.88
2023-02-22T01:27:06.800Z,100270.39
2023-02-22T01:29:49.714Z,100270.08
2023-02-22T01:32:23.117Z,100274.70
2023-02-22T01:34:53.748Z,100279.27
2023-02-22T01:37:21.133Z,100280.63
2023-02-22T01:39:55.197Z,100278.74
2023-02-22T01:42:26.096Z,100281.14
2023-02-22T01:45:54.171Z,100283.55
2023-02-22T01:48:27.836Z,100284.09
2023-02-22T01:51:36.552Z,100279.59
2023-02-22T01:54:40.364Z,100281.48
2023-02-22T01:57:33.783Z,100282.73
2023-02-22T02:00:12.347Z,100288.01
2023-02-22T02:03:00.878Z,100291.38
2023-02-22T02:05:32.050Z,100289.34
2023-02-22T02:08:08.397Z,100289.82
2023-02-22T02:10:35.951Z,100289.74
2023-02-22T02:13:04.005Z,100291.01
2023-02-22T02:15:37.247Z,100295.20
2023-02-22T02:18:10.954Z,100294.21
2023-02-22T02:21:06.766Z,100295.97
2023-02-22T02:24:10.257Z,100301.07
2023-02-22T02:27:10.476Z,100302.95
2023-02-22T02:30:17.020Z,100303.36
2023-02-22T02:33:12.157Z,100303.52
2023-02-22T02:36:19.012Z,100309.15
2023-02-22T02:39:23.860Z,100306.38
2023-02-22T02:41:57.683Z,100311.52
2023-02-22T02:54:43.394Z,100324.94
2023-02-22T02:57:16.747Z,100330.32
2023-02-22T02:59:48.196Z,100328.46
2023-02-22T03:03:06.366Z,100326.30
2023-02-22T03:06:45.067Z,100328.32
2023-02-22T03:09:48.474Z,100331.61
2023-02-22T03:12:47.929Z,100337.36
2023-02-22T03:32:44.669Z,100353.89
2023-02-22T03:41:10.696Z,100362.83
2023-02-22T03:43:46.813Z,100359.85
2023-02-22T03:46:22.220Z,100362.95
2023-02-22T03:49:17.872Z,100363.40
2023-02-22T03:51:46.092Z,100365.10
2023-02-22T03:55:44.904Z,100371.33
2023-02-22T03:58:16.129Z,100376.73
2023-02-22T04:00:46.187Z,100379.19
2023-02-22T04:04:26.846Z,100380.52
2023-02-22T04:06:56.699Z,100387.73
2023-02-22T04:09:24.286Z,100383.83
2023-02-22T04:11:52.876Z,100385.75
2023-02-22T04:14:23.716Z,100389.70
2023-02-22T04:16:53.899Z,100390.20
2023-02-22T04:19:21.741Z,100388.00
2023-02-22T04:21:53.111Z,100394.48
2023-02-22T04:24:26.403Z,100396.27
2023-02-22T04:27:00.467Z,100398.73
2023-02-22T04:29:38.615Z,100404.06
2023-02-22T04:32:09.658Z,100408.38
2023-02-22T04:34:46.036Z,100408.98
2023-02-22T04:37:15.245Z,100414.55
2023-02-22T04:39:42.770Z,100413.59
2023-02-22T04:42:11.841Z,100410.95
2023-02-22T04:44:41.031Z,100413.83
2023-02-22T04:47:11.563Z,100416.76
2023-02-22T04:49:41.116Z,100416.02
2023-02-22T04:52:13.482Z,100415.33
2023-02-22T04:54:40.731Z,100418.32
2023-02-22T05:00:11.056Z,100425.44
2023-02-22T05:02:40.507Z,100424.84
2023-02-22T05:05:10.151Z,100426.16
2023-02-22T05:07:49.533Z,100427.48
2023-02-22T05:10:22.770Z,100427.13
2023-02-22T05:12:53.263Z,100429.82
2023-02-22T05:18:30.216Z,100438.65
2023-02-22T05:20:58.743Z,100434.84
2023-02-22T05:23:25.869Z,100438.98
2023-02-22T05:25:53.709Z,100439.38
2023-02-22T05:29:24.281Z,100439.38
2023-02-22T05:35:12.768Z,100446.94
2023-02-22T05:44:58.412Z,100458.29
